Time;durP1;ratioP1;P1;durP2;ratioP2;P2;SDS_P1;SDS_P2;PMS_P1;PMS_P2;Temp;Humidity;BMP_temperature;BMP_pressure;BME280_temperature;BME280_humidity;BME280_pressure;Samples;Min_cycle;Max_cycle;Signal;HPM_P1;HPM_P2
2021/05/07 00:01:55;;;;;;;2.30;0.63;;;;;;;6.21;66.57;100822.38;5072567;28;20459;-45
2021/05/07 00:04:23;;;;;;;2.28;0.60;;;;;;;6.20;66.72;100831.78;5071741;28;20040;-43
2021/05/07 00:06:51;;;;;;;2.95;0.70;;;;;;;6.19;66.65;100827.38;5072627;28;20045;-44
2021/05/07 00:09:19;;;;;;;1.45;0.57;;;;;;;6.18;66.36;100839.56;5072547;28;20537;-44
2021/05/07 00:11:46;;;;;;;3.50;1.00;;;;;;;6.18;66.87;100836.78;5071582;28;20508;-44
2021/05/07 00:14:13;;;;;;;4.68;0.65;;;;;;;6.17;66.38;100838.72;5065991;28;20048;-46
2021/05/07 00:16:40;;;;;;;4.13;0.98;;;;;;;6.16;66.39;100842.59;5072401;28;20044;-43
2021/05/07 00:19:08;;;;;;;1.58;0.60;;;;;;;6.17;66.42;100837.91;5071502;28;20048;-45
2021/05/07 00:21:39;;;;;;;1.85;0.60;;;;;;;6.18;66.72;100836.78;5064283;28;20452;-43
2021/05/07 00:24:07;;;;;;;3.80;0.80;;;;;;;6.19;66.38;100842.03;5071458;28;20048;-43
2021/05/07 00:26:35;;;;;;;4.18;1.00;;;;;;;6.16;66.73;100839.81;5072166;28;20492;-44
2021/05/07 00:29:02;;;;;;;3.30;0.80;;;;;;;6.16;66.73;100841.75;5071960;28;20048;-44
2021/05/07 00:31:29;;;;;;;3.15;0.80;;;;;;;6.15;66.47;100845.63;5071214;28;20072;-46
2021/05/07 00:33:56;;;;;;;2.28;0.75;;;;;;;6.13;66.57;100837.59;5072317;28;20051;-46
2021/05/07 00:36:23;;;;;;;3.35;0.73;;;;;;;6.12;66.52;100851.72;5070743;28;20048;-44
2021/05/07 00:38:51;;;;;;;4.70;0.95;;;;;;;6.10;66.43;100845.59;5071549;28;20131;-45
2021/05/07 00:41:18;;;;;;;5.15;0.80;;;;;;;6.07;66.11;100848.91;5071720;28;20052;-45
2021/05/07 00:43:47;;;;;;;2.47;0.70;;;;;;;6.06;66.33;100848.06;5071942;28;20044;-47
2021/05/07 00:46:14;;;;;;;1.67;0.50;;;;;;;6.05;66.59;100851.13;5070969;28;20517;-44
2021/05/07 00:48:41;;;;;;;2.83;0.70;;;;;;;6.03;66.57;100848.59;5071886;28;20561;-46
2021/05/07 00:51:08;;;;;;;3.42;0.70;;;;;;;6.01;66.49;100853.59;5071872;28;20520;-45
2021/05/07 00:53:35;;;;;;;3.55;0.80;;;;;;;5.98;66.56;100850.53;5071254;28;20044;-48
2021/05/07 00:56:04;;;;;;;2.38;0.73;;;;;;;5.95;66.69;100851.06;5053698;28;20503;-46
2021/05/07 00:58:31;;;;;;;3.58;0.85;;;;;;;5.91;66.86;100853.53;5071504;28;20086;-45
2021/05/07 01:00:59;;;;;;;3.78;0.80;;;;;;;5.89;66.63;100852.97;5052899;28;20098;-44
2021/05/07 01:03:28;;;;;;;3.17;0.80;;;;;;;5.84;66.98;100850.97;5071598;28;20052;-45
2021/05/07 01:05:58;;;;;;;3.17;0.60;;;;;;;5.80;66.84;100852.59;5071469;28;20469;-45
2021/05/07 01:08:26;;;;;;;3.45;0.90;;;;;;;5.75;66.92;100847.06;5071091;28;20425;-45
2021/05/07 01:10:56;;;;;;;3.75;0.80;;;;;;;5.69;66.85;100842.59;5071329;28;20557;-43
2021/05/07 01:13:25;;;;;;;2.90;0.80;;;;;;;5.64;67.35;100845.31;5053250;28;20520;-46
2021/05/07 01:15:59;;;;;;;2.75;0.70;;;;;;;5.61;67.44;100853.31;5071225;28;20124;-49
2021/05/07 01:18:29;;;;;;;4.32;0.75;;;;;;;5.58;67.50;100853.88;5071586;28;20098;-46
2021/05/07 01:20:57;;;;;;;3.63;1.08;;;;;;;5.57;67.39;100855.81;5070848;28;20054;-46
2021/05/07 01:23:24;;;;;;;4.35;0.85;;;;;;;5.57;67.31;100861.34;5070842;28;20211;-45
2021/05/07 01:25:51;;;;;;;4.53;0.82;;;;;;;5.56;67.41;100854.13;5070865;28;20075;-45
2021/05/07 01:28:19;;;;;;;3.20;1.00;;;;;;;5.56;67.57;100858.84;5071027;28;20394;-47
2021/05/07 01:30:49;;;;;;;4.45;0.90;;;;;;;5.52;67.70;100864.91;5053583;28;20059;-46
2021/05/07 01:33:21;;;;;;;2.97;0.77;;;;;;;5.49;67.95;100864.59;5052890;28;20045;-44
2021/05/07 01:35:50;;;;;;;2.90;0.85;;;;;;;5.46;68.11;100871.47;5070709;28;20490;-45
2021/05/07 01:38:19;;;;;;;3.03;0.73;;;;;;;5.42;68.18;100873.09;5069581;28;20063;-45
2021/05/07 01:40:49;;;;;;;2.83;0.90;;;;;;;5.40;68.30;100878.06;5071351;28;20453;-49
2021/05/07 01:43:19;;;;;;;2.88;0.80;;;;;;;5.38;68.35;100873.94;5054569;28;20577;-47
2021/05/07 01:45:49;;;;;;;2.40;0.85;;;;;;;5.34;68.41;100875.53;5070994;28;20052;-44
2021/05/07 01:48:18;;;;;;;5.65;0.90;;;;;;;5.31;68.89;100874.13;5070831;28;20110;-45
2021/05/07 01:50:48;;;;;;;3.65;0.98;;;;;;;5.30;68.79;100877.16;5050831;28;20086;-47
2021/05/07 01:53:16;;;;;;;5.68;1.38;;;;;;;5.27;68.77;100878.53;5065771;28;20123;-44
2021/05/07 01:55:46;;;;;;;3.85;1.10;;;;;;;5.27;68.90;100886.00;5070606;28;20465;-44
2021/05/07 01:58:17;;;;;;;4.80;1.38;;;;;;;5.24;69.19;100880.97;5053000;28;20490;-44
2021/05/07 02:00:47;;;;;;;3.60;1.50;;;;;;;5.19;69.13;100879.03;5070870;28;20036;-46
2021/05/07 02:03:14;;;;;;;3.17;1.40;;;;;;;5.14;69.08;100879.81;5052748;28;20206;-44
2021/05/07 02:05:54;;;;;;;3.97;1.20;;;;;;;5.06;69.16;100876.66;5071445;28;20141;-44
2021/05/07 02:08:22;;;;;;;3.22;1.30;;;;;;;5.02;69.19;100875.53;5070771;28;20110;-45
2021/05/07 02:10:50;;;;;;;3.03;1.60;;;;;;;4.96;69.38;100874.66;5070335;28;20049;-44
2021/05/07 02:13:18;;;;;;;3.92;1.30;;;;;;;4.90;69.51;100881.22;5070335;28;20114;-45
2021/05/07 02:15:50;;;;;;;3.47;1.35;;;;;;;4.87;69.95;100876.22;5070858;28;20094;-47
2021/05/07 02:18:19;;;;;;;3.58;1.40;;;;;;;4.82;69.95;100885.28;5070171;28;20066;-48
2021/05/07 02:20:50;;;;;;;3.47;1.50;;;;;;;4.79;70.21;100885.00;5060616;28;20045;-43
2021/05/07 02:23:18;;;;;;;3.75;1.23;;;;;;;4.74;70.27;100891.28;5052577;28;20052;-45
2021/05/07 02:25:46;;;;;;;2.92;1.30;;;;;;;4.71;70.64;100888.22;5070230;28;20132;-44
2021/05/07 02:28:22;;;;;;;3.25;1.35;;;;;;;4.67;70.79;100896.19;5068835;28;20082;-46
2021/05/07 02:30:49;;;;;;;3.47;1.10;;;;;;;4.63;70.73;100894.19;5070411;28;20082;-47
2021/05/07 02:33:16;;;;;;;2.78;1.05;;;;;;;4.59;70.90;100902.19;5068748;28;20513;-43
2021/05/07 02:35:43;;;;;;;2.78;1.35;;;;;;;4.58;70.98;100902.44;5056596;28;20084;-44
2021/05/07 02:38:13;;;;;;;3.65;1.33;;;;;;;4.55;71.26;100898.25;5055499;28;20052;-45
2021/05/07 02:40:41;;;;;;;5.00;1.25;;;;;;;4.52;70.99;100901.53;5070722;28;20409;-49
2021/05/07 02:43:10;;;;;;;2.97;0.90;;;;;;;4.50;71.23;100906.50;5073356;28;20417;-45
2021/05/07 02:45:39;;;;;;;1.98;0.80;;;;;;;4.48;71.24;100905.91;5073278;28;20458;-48
2021/05/07 02:48:06;;;;;;;3.15;1.00;;;;;;;4.46;71.40;100908.09;5074332;28;20060;-48
2021/05/07 02:50:34;;;;;;;1.70;0.80;;;;;;;4.43;71.23;100909.44;5073931;28;20068;-45
2021/05/07 02:53:02;;;;;;;2.05;0.75;;;;;;;4.43;71.43;100914.97;5072239;28;20064;-47
2021/05/07 02:55:30;;;;;;;4.15;0.90;;;;;;;4.43;71.81;100909.44;5073764;28;20051;-45
2021/05/07 02:57:58;;;;;;;2.72;0.75;;;;;;;4.44;71.37;100915.78;5056134;28;20497;-44
2021/05/07 03:00:24;;;;;;;3.30;1.17;;;;;;;4.44;71.52;100915.78;5055341;28;20052;-46
2021/05/07 03:02:52;;;;;;;4.13;0.88;;;;;;;4.48;71.58;100920.56;5053953;28;20057;-48
2021/05/07 03:05:19;;;;;;;4.50;1.20;;;;;;;4.50;71.35;100918.38;5065522;28;20043;-45
2021/05/07 03:07:46;;;;;;;2.25;0.90;;;;;;;4.52;71.39;100925.56;5073243;28;20048;-45
2021/05/07 03:10:13;;;;;;;2.78;1.00;;;;;;;4.53;71.42;100921.72;5073659;28;20040;-47
2021/05/07 03:12:41;;;;;;;5.03;0.90;;;;;;;4.54;71.58;100924.22;5073768;28;20057;-48
2021/05/07 03:15:09;;;;;;;2.25;0.88;;;;;;;4.57;71.55;100929.25;5072857;28;20040;-46
2021/05/07 03:17:36;;;;;;;4.80;0.98;;;;;;;4.60;71.42;100934.22;5073467;28;20405;-44
2021/05/07 03:20:05;;;;;;;2.25;0.85;;;;;;;4.65;71.28;100933.47;5072731;28;20114;-47
2021/05/07 03:22:32;;;;;;;4.72;1.10;;;;;;;4.69;71.28;100940.97;5073669;28;20105;-44
2021/05/07 03:25:00;;;;;;;2.72;0.80;;;;;;;4.74;71.27;100934.69;5073511;28;20049;-45
2021/05/07 03:27:26;;;;;;;2.55;0.80;;;;;;;4.78;71.25;100947.75;5073034;28;20041;-43
2021/05/07 03:29:53;;;;;;;3.90;0.73;;;;;;;4.81;71.06;100952.72;5073194;28;20106;-47
2021/05/07 03:32:20;;;;;;;4.90;0.82;;;;;;;4.85;71.27;100948.34;5073283;28;20102;-46
2021/05/07 03:34:49;;;;;;;3.10;0.90;;;;;;;4.90;70.88;100957.81;5072669;28;20692;-46
2021/05/07 03:37:17;;;;;;;2.40;0.65;;;;;;;4.97;70.83;100958.44;5073182;28;20117;-45
2021/05/07 03:39:44;;;;;;;4.53;0.93;;;;;;;5.02;70.56;100959.31;5073288;28;20049;-46
2021/05/07 03:42:11;;;;;;;3.00;0.70;;;;;;;5.08;69.99;100960.22;5072276;28;20052;-45
2021/05/07 03:44:38;;;;;;;2.08;0.68;;;;;;;5.14;69.66;100967.47;5073062;28;20044;-46
2021/05/07 03:47:05;;;;;;;3.90;0.95;;;;;;;5.17;69.56;100967.81;5072173;28;20453;-45
2021/05/07 03:49:32;;;;;;;3.70;0.90;;;;;;;5.22;69.36;100972.53;5071835;28;20420;-48
2021/05/07 03:52:00;;;;;;;1.60;0.65;;;;;;;5.24;69.00;100967.56;5072320;28;20124;-44
2021/05/07 03:54:28;;;;;;;2.22;0.60;;;;;;;5.28;68.73;100974.25;5072462;28;20048;-47
2021/05/07 03:56:55;;;;;;;3.17;0.80;;;;;;;5.33;68.59;100973.47;5071581;28;20115;-45
2021/05/07 03:59:22;;;;;;;4.47;0.70;;;;;;;5.35;68.51;100988.72;5071996;28;20505;-49
2021/05/07 04:01:49;;;;;;;3.10;0.70;;;;;;;5.38;68.15;100979.91;5071151;28;20604;-45
2021/05/07 04:04:16;;;;;;;4.25;0.85;;;;;;;5.42;68.19;100986.56;5070918;28;20076;-44
2021/05/07 04:06:43;;;;;;;4.10;1.23;;;;;;;5.47;68.14;100994.91;5072080;28;20073;-47
2021/05/07 04:09:12;;;;;;;3.08;0.70;;;;;;;5.51;68.18;101001.59;5072168;28;20456;-47
2021/05/07 04:11:54;;;;;;;3.45;0.70;;;;;;;5.53;68.02;101001.34;5072383;28;20067;-49
2021/05/07 04:14:21;;;;;;;3.03;0.75;;;;;;;5.55;67.28;101007.47;5062439;28;20097;-48
2021/05/07 04:16:47;;;;;;;2.05;0.60;;;;;;;5.59;67.15;101024.38;5069897;28;20068;-44
2021/05/07 04:19:14;;;;;;;4.20;0.75;;;;;;;5.63;66.87;101020.81;5072313;28;20094;-46
2021/05/07 04:21:41;;;;;;;2.92;0.80;;;;;;;5.66;66.58;101020.28;5071419;28;20058;-45
2021/05/07 04:24:09;;;;;;;4.13;0.77;;;;;;;5.71;66.51;101023.09;5070605;28;20055;-45
2021/05/07 04:26:36;;;;;;;3.65;0.82;;;;;;;5.77;66.32;101021.22;5072564;28;20458;-48
2021/05/07 04:29:04;;;;;;;3.65;1.08;;;;;;;5.83;65.84;101032.06;5071862;28;20040;-45
2021/05/07 04:31:31;;;;;;;3.33;0.73;;;;;;;5.87;65.47;101035.16;5071789;28;20409;-47
2021/05/07 04:33:58;;;;;;;4.70;0.80;;;;;;;5.91;65.04;101043.81;5071969;28;20551;-43
2021/05/07 04:36:25;;;;;;;4.07;0.70;;;;;;;5.93;65.25;101047.16;5071965;28;20110;-43
2021/05/07 04:38:55;;;;;;;2.53;0.70;;;;;;;5.93;64.85;101050.75;5071102;28;20135;-45
2021/05/07 04:41:22;;;;;;;2.65;0.70;;;;;;;5.93;64.44;101047.16;5071976;28;20056;-45
2021/05/07 04:43:49;;;;;;;1.50;0.60;;;;;;;5.95;64.41;101045.78;5071970;28;20098;-43
2021/05/07 04:46:16;;;;;;;6.10;0.80;;;;;;;5.96;64.08;101054.94;5071666;28;20132;-45
2021/05/07 04:48:43;;;;;;;4.53;0.90;;;;;;;5.97;64.23;101054.66;5071929;28;20053;-45
2021/05/07 04:51:10;;;;;;;3.05;0.75;;;;;;;5.97;64.37;101051.91;5071969;28;20052;-43
2021/05/07 04:53:37;;;;;;;2.20;0.63;;;;;;;5.99;64.76;101066.31;5070904;28;20567;-43
2021/05/07 04:56:04;;;;;;;3.00;0.80;;;;;;;5.99;64.72;101066.31;5071522;28;20059;-45
2021/05/07 04:58:31;;;;;;;1.63;0.60;;;;;;;6.00;64.46;101064.34;5070138;28;20048;-44
2021/05/07 05:00:58;;;;;;;3.70;0.85;;;;;;;6.01;64.17;101071.56;5071748;28;20109;-45
2021/05/07 05:03:26;;;;;;;2.67;0.80;;;;;;;6.03;64.38;101075.75;5071588;28;20067;-43
2021/05/07 05:05:52;;;;;;;2.88;0.70;;;;;;;6.06;64.05;101077.16;5070904;28;20136;-45
2021/05/07 05:08:23;;;;;;;4.55;0.50;;;;;;;6.10;63.87;101075.53;5071475;28;20052;-44
2021/05/07 05:10:54;;;;;;;2.22;0.77;;;;;;;6.17;63.74;101090.03;5071072;28;20064;-44
2021/05/07 05:13:21;;;;;;;5.03;1.10;;;;;;;6.21;63.82;101085.59;5070946;28;20055;-45
2021/05/07 05:15:49;;;;;;;3.72;1.20;;;;;;;6.26;63.81;101082.88;5071302;28;20067;-47
2021/05/07 05:18:28;;;;;;;3.15;0.68;;;;;;;6.33;63.54;101097.34;5071452;28;20044;-48
2021/05/07 05:20:56;;;;;;;2.83;0.70;;;;;;;6.38;63.82;101094.63;5070686;28;20055;-44
2021/05/07 05:23:23;;;;;;;3.88;0.70;;;;;;;6.44;63.67;101107.41;5071613;28;20135;-46
2021/05/07 05:25:50;;;;;;;2.95;0.77;;;;;;;6.49;63.62;101107.44;5071161;28;20049;-55
2021/05/07 05:28:18;;;;;;;3.53;0.80;;;;;;;6.57;63.77;101109.72;5070949;28;20044;-49
2021/05/07 05:30:45;;;;;;;3.70;0.88;;;;;;;6.67;63.46;101113.66;5070932;28;20056;-45
2021/05/07 05:33:12;;;;;;;3.35;0.70;;;;;;;6.75;63.49;101115.94;5070511;28;20053;-45
2021/05/07 05:35:40;;;;;;;4.13;0.73;;;;;;;6.81;62.82;101117.63;5070292;28;20046;-44
2021/05/07 05:38:08;;;;;;;2.60;0.60;;;;;;;6.83;62.49;101123.75;5071226;28;20082;-44
2021/05/07 05:40:35;;;;;;;3.97;0.70;;;;;;;6.83;62.83;101130.13;5070433;28;20052;-46
2021/05/07 05:43:02;;;;;;;2.25;0.70;;;;;;;6.84;62.67;101125.41;5071209;28;20143;-47
2021/05/07 05:45:29;;;;;;;2.25;0.57;;;;;;;6.88;62.55;101134.88;5070666;28;20493;-49
2021/05/07 05:48:03;;;;;;;2.42;0.75;;;;;;;6.94;62.51;101139.38;5070289;28;20419;-44
2021/05/07 05:50:30;;;;;;;1.75;0.50;;;;;;;7.02;62.53;101138.84;5070880;28;20056;-44
2021/05/07 05:52:58;;;;;;;2.90;0.73;;;;;;;7.10;61.93;101151.38;5071327;28;20459;-44
2021/05/07 05:55:28;;;;;;;2.58;0.50;;;;;;;7.13;61.76;101139.75;5070024;28;20057;-45
2021/05/07 05:57:55;;;;;;;3.08;0.88;;;;;;;7.20;61.39;101152.25;5071230;28;20052;-44
2021/05/07 06:00:23;;;;;;;2.13;0.60;;;;;;;7.31;61.43;101147.59;5070713;28;20455;-45
2021/05/07 06:02:50;;;;;;;2.38;0.60;;;;;;;7.40;61.45;101154.28;5070029;28;20059;-44
2021/05/07 06:05:17;;;;;;;2.20;0.60;;;;;;;7.47;61.00;101159.59;5070928;28;20048;-46
2021/05/07 06:07:45;;;;;;;1.58;0.60;;;;;;;7.57;60.84;101160.50;5069650;28;20459;-46
2021/05/07 06:10:15;;;;;;;2.60;0.57;;;;;;;7.74;60.90;101167.75;5072012;28;20517;-43
2021/05/07 06:12:44;;;;;;;1.10;0.40;;;;;;;7.90;59.75;101173.09;5071178;28;20048;-43
2021/05/07 06:15:13;;;;;;;2.15;0.60;;;;;;;8.09;59.97;101169.78;5073453;28;20049;-45
2021/05/07 06:17:41;;;;;;;1.30;0.50;;;;;;;8.27;59.40;101175.66;5073995;28;20043;-47
2021/05/07 06:20:10;;;;;;;2.78;0.60;;;;;;;8.49;59.45;101172.66;5074954;28;20463;-46
2021/05/07 06:22:37;;;;;;;3.03;0.60;;;;;;;8.70;58.80;101173.47;5074391;28;20417;-43
2021/05/07 06:25:08;;;;;;;2.15;0.40;;;;;;;8.86;57.04;101175.13;5074240;28;20045;-44
2021/05/07 06:27:37;;;;;;;2.03;0.45;;;;;;;9.00;56.76;101172.59;5073700;28;20506;-44
2021/05/07 06:30:06;;;;;;;1.27;0.40;;;;;;;9.12;56.37;101183.44;5053502;28;20083;-44
2021/05/07 06:32:35;;;;;;;2.13;0.50;;;;;;;9.29;56.35;101187.56;5068708;28;20053;-49
2021/05/07 06:35:03;;;;;;;2.22;0.50;;;;;;;9.52;55.91;101191.69;5073211;28;20549;-50
2021/05/07 06:37:30;;;;;;;2.80;0.70;;;;;;;9.76;55.75;101191.03;5061516;28;20048;-43
2021/05/07 06:39:57;;;;;;;2.33;0.50;;;;;;;9.95;55.02;101201.25;5073357;28;20102;-47
2021/05/07 06:42:24;;;;;;;2.90;0.80;;;;;;;10.12;54.31;101205.63;5065442;28;20516;-45
2021/05/07 06:44:53;;;;;;;2.95;0.60;;;;;;;10.17;53.93;101200.84;5073947;28;20148;-45
2021/05/07 06:47:20;;;;;;;2.10;0.50;;;;;;;10.27;53.67;101211.13;5073885;28;20036;-49
2021/05/07 06:49:47;;;;;;;2.47;0.68;;;;;;;10.35;52.95;101207.75;5073998;28;20486;-43
2021/05/07 06:52:14;;;;;;;1.55;0.50;;;;;;;10.50;52.98;101215.16;5073534;28;20044;-46
2021/05/07 06:54:41;;;;;;;2.45;0.57;;;;;;;10.63;52.75;101214.50;5073885;28;20452;-49
2021/05/07 06:57:08;;;;;;;1.92;0.60;;;;;;;10.80;52.31;101228.88;5073865;28;20056;-43
2021/05/07 06:59:35;;;;;;;2.60;0.60;;;;;;;10.84;52.03;101229.13;5073669;28;20051;-44
2021/05/07 07:02:03;;;;;;;2.30;0.52;;;;;;;10.82;52.06;101232.19;5065264;28;20056;-47
2021/05/07 07:04:30;;;;;;;2.50;0.60;;;;;;;10.67;52.29;101237.91;5073618;28;20389;-44
2021/05/07 07:06:57;;;;;;;1.92;0.43;;;;;;;10.46;52.57;101236.38;5073171;28;20125;-45
2021/05/07 07:09:24;;;;;;;1.67;0.65;;;;;;;10.21;52.69;101240.16;5073195;28;20048;-48
2021/05/07 07:11:53;;;;;;;1.77;0.50;;;;;;;10.05;52.86;101252.50;5073756;28;20147;-45
2021/05/07 07:14:20;;;;;;;2.03;0.47;;;;;;;10.11;52.86;101254.97;5073327;28;20052;-46
2021/05/07 07:16:47;;;;;;;2.08;0.50;;;;;;;10.32;52.95;101258.53;5073599;28;20052;-47
2021/05/07 07:19:20;;;;;;;1.70;0.45;;;;;;;10.61;51.74;101262.22;5073014;28;20048;-44
2021/05/07 07:22:04;;;;;;;2.08;0.50;;;;;;;10.83;51.24;101264.56;5072925;28;20041;-47
2021/05/07 07:24:31;;;;;;;2.55;0.63;;;;;;;11.08;51.37;101271.09;5072507;28;20139;-45
2021/05/07 07:26:58;;;;;;;2.28;0.60;;;;;;;11.34;51.11;101275.31;5072894;28;20079;-47
2021/05/07 07:29:25;;;;;;;3.05;0.65;;;;;;;11.65;50.37;101273.03;5073073;28;20051;-47
2021/05/07 07:31:52;;;;;;;3.08;0.70;;;;;;;11.77;50.06;101281.88;5073081;28;20048;-48
2021/05/07 07:34:21;;;;;;;2.22;0.65;;;;;;;11.73;50.05;101283.56;5072325;28;20032;-49
2021/05/07 07:36:48;;;;;;;1.63;0.55;;;;;;;11.78;50.06;101277.97;5073085;28;20059;-47
2021/05/07 07:39:17;;;;;;;1.50;0.50;;;;;;;11.88;49.65;101285.38;5072931;28;20055;-46
2021/05/07 07:41:43;;;;;;;2.38;0.68;;;;;;;11.81;50.06;101291.31;5072482;28;20052;-47
2021/05/07 07:44:10;;;;;;;2.72;0.60;;;;;;;11.61;50.17;101294.31;5072621;28;20080;-46
2021/05/07 07:46:37;;;;;;;2.75;0.60;;;;;;;11.38;50.73;101294.00;5072899;28;20103;-48
2021/05/07 07:49:05;;;;;;;2.67;0.70;;;;;;;11.15;51.35;101299.53;5072073;28;20044;-44
2021/05/07 07:51:34;;;;;;;2.38;0.68;;;;;;;10.96;51.88;101302.19;5072998;28;20552;-44
2021/05/07 07:54:03;;;;;;;1.58;0.55;;;;;;;10.76;51.50;101305.13;5072530;28;20044;-44
2021/05/07 07:56:31;;;;;;;1.80;0.52;;;;;;;10.62;51.20;101302.13;5072289;28;20494;-45
2021/05/07 07:58:57;;;;;;;2.13;0.88;;;;;;;10.78;51.35;101314.88;5072445;28;20040;-45
2021/05/07 08:01:24;;;;;;;1.92;0.60;;;;;;;11.13;51.02;101312.94;5071985;28;20049;-44
2021/05/07 08:03:51;;;;;;;1.77;0.60;;;;;;;11.47;50.57;101324.09;5071722;28;20052;-45
2021/05/07 08:06:18;;;;;;;2.35;0.60;;;;;;;11.73;50.14;101328.31;5069526;28;20049;-46
2021/05/07 08:08:46;;;;;;;3.70;0.75;;;;;;;11.93;50.04;101330.91;5070620;28;20071;-46
2021/05/07 08:11:13;;;;;;;3.72;1.00;;;;;;;11.93;49.84;101325.31;5072224;28;20067;-44
2021/05/07 08:13:40;;;;;;;2.83;0.60;;;;;;;11.78;49.87;101325.50;5072201;28;20056;-47
2021/05/07 08:16:10;;;;;;;2.10;0.70;;;;;;;11.67;50.44;101337.88;5071314;28;20049;-47
2021/05/07 08:18:37;;;;;;;4.15;0.88;;;;;;;11.86;50.30;101337.97;5072260;28;20049;-42
2021/05/07 08:21:05;;;;;;;2.60;0.70;;;;;;;12.09;49.63;101342.75;5071385;28;20049;-45
2021/05/07 08:23:32;;;;;;;2.17;0.80;;;;;;;12.06;49.47;101348.94;5071644;28;20052;-44
2021/05/07 08:26:00;;;;;;;2.10;0.70;;;;;;;12.03;49.89;101343.94;5071470;28;20037;-44
2021/05/07 08:28:27;;;;;;;3.92;0.90;;;;;;;12.20;49.63;101357.44;5071713;28;20094;-45
2021/05/07 08:30:54;;;;;;;4.22;1.08;;;;;;;12.44;49.31;101352.66;5071247;28;20040;-49
2021/05/07 08:33:25;;;;;;;2.25;0.65;;;;;;;12.65;48.68;101361.63;5071109;28;20048;-44
2021/05/07 08:35:52;;;;;;;5.88;0.80;;;;;;;12.87;48.37;101369.44;5070265;28;20060;-45
2021/05/07 08:38:19;;;;;;;3.97;0.80;;;;;;;13.04;47.25;101375.34;5071215;28;20045;-49
2021/05/07 08:40:46;;;;;;;1.77;0.82;;;;;;;13.22;46.80;101366.13;5071303;28;20052;-46
2021/05/07 08:43:14;;;;;;;2.63;0.65;;;;;;;13.39;47.06;101374.81;5071630;28;20074;-50
2021/05/07 08:45:41;;;;;;;1.33;0.52;;;;;;;13.60;46.97;101377.25;5071043;28;20049;-47
2021/05/07 08:48:11;;;;;;;2.45;0.80;;;;;;;13.87;46.47;101382.97;5071486;28;20501;-49
2021/05/07 08:50:48;;;;;;;3.20;1.00;;;;;;;14.07;45.76;101385.38;5070711;28;20899;-46
2021/05/07 08:53:16;;;;;;;2.90;0.70;;;;;;;14.19;45.58;101389.69;5070909;28;20044;-51
2021/05/07 08:55:43;;;;;;;2.45;0.60;;;;;;;14.31;45.10;101395.59;5070791;28;20048;-49
2021/05/07 08:58:10;;;;;;;2.63;0.70;;;;;;;14.40;44.24;101393.72;5070069;28;20086;-47
2021/05/07 09:00:38;;;;;;;2.33;0.82;;;;;;;14.44;44.30;101403.22;5071273;28;20045;-49
2021/05/07 09:03:06;;;;;;;4.22;0.90;;;;;;;14.42;44.45;101411.94;5070901;28;20086;-46
2021/05/07 09:05:36;;;;;;;2.90;0.90;;;;;;;14.48;44.57;101412.69;5069917;28;20131;-48
2021/05/07 09:08:03;;;;;;;2.17;0.70;;;;;;;14.66;44.10;101410.91;5070308;28;20056;-57
2021/05/07 09:10:32;;;;;;;2.95;0.70;;;;;;;14.77;43.85;101407.59;5071220;28;20048;-47
2021/05/07 09:12:58;;;;;;;3.63;1.10;;;;;;;14.78;44.04;101414.03;5070353;28;20072;-51
2021/05/07 09:15:39;;;;;;;3.30;0.80;;;;;;;14.89;42.71;101418.28;5070500;28;20044;-46
2021/05/07 09:18:06;;;;;;;2.35;0.70;;;;;;;15.05;43.71;101422.41;5070568;28;20098;-46
2021/05/07 09:20:38;;;;;;;2.30;0.68;;;;;;;15.22;43.43;101426.50;5068642;28;20053;-48
2021/05/07 09:23:10;;;;;;;;;;;;;;;15.41;41.13;101430.81;5071217;28;20044;-49
2021/05/07 09:25:37;;;;;;;2.85;0.70;;;;;;;15.74;43.00;101439.06;5070356;28;19924;-49
2021/05/07 09:28:13;;;;;;;2.03;0.57;;;;;;;16.17;41.56;101430.91;5070808;28;20040;-53
2021/05/07 09:30:42;;;;;;;2.45;0.90;;;;;;;16.38;40.80;101434.84;5070998;28;20090;-51
2021/05/07 09:33:12;;;;;;;3.13;0.90;;;;;;;16.49;41.14;101435.34;5070025;28;20055;-48
2021/05/07 09:35:40;;;;;;;2.72;0.80;;;;;;;16.91;40.12;101447.97;5070561;28;20139;-51
2021/05/07 09:38:08;;;;;;;2.85;0.70;;;;;;;17.19;39.14;101448.50;5069865;28;20517;-49
2021/05/07 09:40:37;;;;;;;4.07;0.80;;;;;;;17.34;38.35;101461.31;5069766;28;20060;-49
2021/05/07 09:43:07;;;;;;;2.58;0.82;;;;;;;17.20;38.54;101453.00;5067536;28;20048;-51
2021/05/07 09:45:35;;;;;;;3.15;0.90;;;;;;;17.06;39.32;101461.59;5069679;28;20098;-50
2021/05/07 09:48:04;;;;;;;3.67;0.93;;;;;;;16.76;39.59;101468.16;5069655;28;20052;-46
2021/05/07 09:50:38;;;;;;;3.15;1.00;;;;;;;16.55;40.34;101465.06;5070958;28;20068;-52
2021/05/07 09:53:10;;;;;;;3.13;1.13;;;;;;;16.63;40.22;101469.06;5070637;28;20040;-55
2021/05/07 09:55:38;;;;;;;3.53;1.00;;;;;;;16.50;40.36;101477.31;5059447;28;20044;-47
2021/05/07 09:58:05;;;;;;;2.92;1.10;;;;;;;16.65;40.77;101476.06;5069975;28;20052;-48
2021/05/07 10:00:33;;;;;;;3.33;0.95;;;;;;;16.57;40.36;101488.13;5070701;28;20414;-50
2021/05/07 10:02:59;;;;;;;2.50;0.98;;;;;;;16.66;40.96;101482.53;5069387;28;20045;-54
2021/05/07 10:05:28;;;;;;;3.38;1.20;;;;;;;16.92;41.21;101485.44;5066707;28;20072;-48
2021/05/07 10:07:58;;;;;;;3.92;1.30;;;;;;;17.20;40.05;101489.66;5070071;28;20053;-54
2021/05/07 10:10:28;;;;;;;2.10;1.10;;;;;;;16.96;39.58;101494.94;5069990;28;20048;-47
2021/05/07 10:12:57;;;;;;;2.85;1.05;;;;;;;16.91;40.09;101493.09;5070280;28;20127;-51
2021/05/07 10:15:29;;;;;;;3.70;1.63;;;;;;;17.07;39.54;101499.09;5069492;28;20433;-48
2021/05/07 10:17:57;;;;;;;3.00;1.25;;;;;;;17.10;39.57;101509.72;5070375;28;20056;-51
2021/05/07 10:20:26;;;;;;;2.80;1.20;;;;;;;17.21;39.29;101497.78;5070084;28;20055;-53
2021/05/07 10:23:00;;;;;;;2.78;1.30;;;;;;;17.31;39.63;101510.78;5069942;28;20526;-50
2021/05/07 10:25:28;;;;;;;2.90;1.30;;;;;;;17.48;39.31;101510.78;5069802;28;20068;-52
2021/05/07 10:27:56;;;;;;;4.32;1.50;;;;;;;17.54;38.91;101512.31;5069406;28;20075;-51
2021/05/07 10:30:25;;;;;;;2.60;1.30;;;;;;;17.53;38.95;101518.28;5069558;28;20049;-49
2021/05/07 10:32:57;;;;;;;3.10;1.63;;;;;;;17.69;39.04;101521.47;5070065;28;20120;-53
2021/05/07 10:35:34;;;;;;;3.65;1.60;;;;;;;17.71;37.88;101513.50;5069558;28;20052;-50
2021/05/07 10:38:13;;;;;;;3.53;1.60;;;;;;;17.56;37.10;101509.16;5069799;28;20061;-51
2021/05/07 10:40:41;;;;;;;3.33;1.50;;;;;;;17.42;38.11;101511.28;5069932;28;20555;-50
2021/05/07 10:43:09;;;;;;;4.88;1.90;;;;;;;17.49;38.01;101526.56;5069261;28;20044;-54
2021/05/07 10:45:44;;;;;;;4.22;2.00;;;;;;;17.51;36.51;101529.91;5069602;28;20076;-51
2021/05/07 10:48:30;;;;;;;3.08;1.48;;;;;;;17.10;38.02;101521.00;5069630;28;20048;-52
2021/05/07 10:50:58;;;;;;;3.80;1.70;;;;;;;16.85;38.30;101523.41;5069460;28;20226;-49
2021/05/07 10:53:35;;;;;;;2.78;1.30;;;;;;;16.71;38.79;101539.59;5069869;28;20139;-51
2021/05/07 10:56:14;;;;;;;3.08;1.50;;;;;;;16.60;39.17;101531.69;5069849;28;20148;-48
2021/05/07 10:58:41;;;;;;;3.35;1.55;;;;;;;16.77;38.89;101532.66;5072591;28;20053;-46
2021/05/07 11:01:23;;;;;;;3.95;1.63;;;;;;;16.67;38.73;101547.03;5073551;28;20489;-51
2021/05/07 11:04:04;;;;;;;4.93;1.80;;;;;;;16.32;39.27;101542.31;5073484;28;20481;-46
2021/05/07 11:06:34;;;;;;;3.35;1.90;;;;;;;15.75;41.21;101547.69;5073163;28;20072;-48
2021/05/07 11:09:20;;;;;;;4.30;1.45;;;;;;;15.33;41.40;101549.72;5073314;28;20049;-47
2021/05/07 11:11:49;;;;;;;4.07;1.80;;;;;;;14.99;41.92;101549.28;5072636;28;20052;-47
2021/05/07 11:14:18;;;;;;;4.80;1.67;;;;;;;14.91;42.47;101552.84;5073193;28;20048;-55
2021/05/07 11:16:47;;;;;;;4.47;1.80;;;;;;;14.85;42.69;101546.47;5072651;28;20086;-48
2021/05/07 11:19:24;;;;;;;5.13;1.52;;;;;;;14.82;43.30;101545.13;5072453;28;20040;-46
2021/05/07 11:21:53;;;;;;;4.07;1.50;;;;;;;15.09;43.54;101555.56;5072891;28;20072;-48
2021/05/07 11:24:25;;;;;;;3.33;1.30;;;;;;;15.47;42.92;101550.50;5073156;28;20053;-54
2021/05/07 11:26:52;;;;;;;2.42;1.20;;;;;;;15.36;42.43;101557.53;5071985;28;20081;-53
2021/05/07 11:29:30;;;;;;;4.53;1.38;;;;;;;15.32;43.26;101570.53;5072879;28;20052;-52
2021/05/07 11:32:11;;;;;;;3.85;0.90;;;;;;;15.18;40.98;101566.91;5072690;28;20796;-51
2021/05/07 11:34:39;;;;;;;2.10;0.75;;;;;;;15.23;42.02;101569.59;5073134;28;20048;-50
2021/05/07 11:37:06;;;;;;;3.00;1.15;;;;;;;15.25;42.01;101567.31;5072323;28;20060;-52